Time;durP1;ratioP1;P1;durP2;ratioP2;P2;SDS_P1;SDS_P2;PMS_P1;PMS_P2;Temp;Humidity;BMP_temperature;BMP_pressure;BME280_temperature;BME280_humidity;BME280_pressure;Samples;Min_cycle;Max_cycle;Signal;HPM_P1;HPM_P2
2022/10/19 00:01:19;;;;;;;;;;;;;;;15.18;54.64;100494.00;4305564;33;20031;-83
2022/10/19 00:03:47;;;;;;;;;;;;;;;15.17;54.52;100495.75;4316193;33;20012;-87
2022/10/19 00:06:25;;;;;;;;;;;;;;;15.31;53.82;100491.50;4298352;33;20418;-91
2022/10/19 00:08:56;;;;;;;;;;;;;;;15.21;54.46;100494.03;4298710;33;19984;-86
2022/10/19 00:11:23;;;;;;;;;;;;;;;15.20;54.31;100480.13;4311596;33;20333;-85
2022/10/19 00:13:50;;;;;;;;;;;;;;;15.14;54.47;100487.03;4312012;33;20003;-85
2022/10/19 00:16:18;;;;;;;;;;;;;;;15.17;54.75;100487.91;4312229;33;19988;-86
2022/10/19 00:18:44;;;;;;;;;;;;;;;15.23;54.19;100477.53;4313392;33;20286;-89
2022/10/19 00:21:13;;;;;;;;;;;;;;;15.31;53.82;100470.63;4324337;33;19994;-83
2022/10/19 00:23:40;;;;;;;;;;;;;;;15.23;54.10;100471.47;4321839;33;19980;-89
2022/10/19 00:26:07;;;;;;;;;;;;;;;15.06;54.96;100468.69;4312759;33;20026;-89
2022/10/19 00:28:39;;;;;;;;;;;;;;;15.30;54.14;100471.50;4309735;33;20089;-84
2022/10/19 00:31:25;;;;;;;;;;;;;;;15.14;54.58;100461.81;4323480;33;20038;-84
2022/10/19 00:33:57;;;;;;;;;;;;;;;14.93;55.25;100472.06;4312487;33;20325;-86
2022/10/19 00:36:29;;;;;;;;;;;;;;;14.83;55.12;100466.78;4309839;33;20019;-83
2022/10/19 00:39:00;;;;;;;;;;;;;;;14.93;54.95;100472.06;4310741;33;20006;-89
2022/10/19 00:41:28;;;;;;;;;;;;;;;14.89;54.95;100466.81;4311411;33;20003;-87
2022/10/19 00:43:57;;;;;;;;;;;;;;;14.92;54.95;100458.16;4310810;33;20001;-89
2022/10/19 00:46:25;;;;;;;;;;;;;;;14.93;54.93;100456.44;4312019;33;19994;-90
2022/10/19 00:48:53;;;;;;;;;;;;;;;14.95;54.76;100449.50;4310514;33;19993;-86
2022/10/19 00:51:20;;;;;;;;;;;;;;;14.96;55.03;100446.03;4312071;33;20381;-88
2022/10/19 00:53:46;;;;;;;;;;;;;;;14.93;55.24;100436.44;4309761;33;20105;-91
2022/10/19 00:56:14;;;;;;;;;;;;;;;14.89;55.16;100430.34;4297528;33;20086;-84
2022/10/19 00:58:41;;;;;;;;;;;;;;;14.91;55.33;100439.94;4295584;33;19980;-89
2022/10/19 01:01:08;;;;;;;;;;;;;;;14.76;56.17;100428.50;4295158;33;19981;-87
2022/10/19 01:03:35;;;;;;;;;;;;;;;14.93;55.75;100426.00;4295810;33;20001;-88
2022/10/19 01:06:02;;;;;;;;;;;;;;;14.91;55.91;100421.69;4309785;33;19998;-86
2022/10/19 01:08:29;;;;;;;;;;;;;;;14.86;56.35;100419.87;4306567;33;19996;-86
2022/10/19 01:11:14;;;;;;;;;;;;;;;14.85;56.29;100419.87;3701676;33;10006217;-88
2022/10/19 01:13:59;;;;;;;;;;;;;;;14.68;56.84;100419.75;4296642;33;20369;-87
2022/10/19 01:16:29;;;;;;;;;;;;;;;14.83;56.26;100417.25;4296781;33;19995;-91
2022/10/19 01:19:03;;;;;;;;;;;;;;;14.82;56.32;100412.91;4298416;33;19981;-85
2022/10/19 01:21:34;;;;;;;;;;;;;;;14.95;55.74;100407.78;4307504;33;20002;-87
2022/10/19 01:24:07;;;;;;;;;;;;;;;14.95;56.14;100402.59;4308509;33;19989;-89
2022/10/19 01:26:40;;;;;;;;;;;;;;;15.00;56.10;100400.88;4309670;33;19976;-86
2022/10/19 01:29:15;;;;;;;;;;;;;;;15.02;56.17;100406.97;4306535;33;19980;-88
2022/10/19 01:31:46;;;;;;;;;;;;;;;14.97;56.41;100401.75;4309681;33;20006;-84
2022/10/19 01:34:42;;;;;;;;;;;;;;;14.99;56.30;100396.53;4309790;33;19983;-84
2022/10/19 01:37:28;;;;;;;;;;;;;;;15.06;56.42;100400.91;4302626;33;19994;-88
2022/10/19 01:40:00;;;;;;;;;;;;;;;15.04;56.53;100392.22;4311071;33;19976;-88
2022/10/19 01:42:38;;;;;;;;;;;;;;;14.99;56.73;100378.28;4309833;33;19988;-88
2022/10/19 01:45:07;;;;;;;;;;;;;;;15.15;56.12;100380.09;4310122;33;19984;-88
2022/10/19 01:47:35;;;;;;;;;;;;;;;15.24;55.72;100374.94;4291873;33;20519;-90
2022/10/19 01:50:08;;;;;;;;;;;;;;;15.28;55.61;100376.72;4309328;33;20321;-90
2022/10/19 01:52:35;;;;;;;;;;;;;;;15.29;55.47;100368.03;4309419;33;20085;-89
2022/10/19 01:55:02;;;;;;;;;;;;;;;15.31;55.68;100365.41;4309297;33;20342;-87
2022/10/19 01:57:31;;;;;;;;;;;;;;;15.23;56.00;100373.22;4309658;33;19995;-87
2022/10/19 01:59:58;;;;;;;;;;;;;;;15.24;56.07;100372.34;4310700;33;19980;-84
2022/10/19 02:02:25;;;;;;;;;;;;;;;15.34;55.68;100376.75;4325158;33;20507;-88
2022/10/19 02:04:52;;;;;;;;;;;;;;;15.47;54.95;100376.81;4325532;33;20801;-85
2022/10/19 02:07:19;;;;;;;;;;;;;;;15.50;55.03;100392.47;4303116;33;20357;-86
2022/10/19 02:09:45;;;;;;;;;;;;;;;15.51;54.75;100383.81;4309446;33;20337;-84
2022/10/19 02:12:12;;;;;;;;;;;;;;;15.56;54.72;100385.53;4308272;33;20002;-83
2022/10/19 02:14:41;;;;;;;;;;;;;;;15.61;54.59;100389.94;4297829;33;20007;-86
2022/10/19 02:17:08;;;;;;;;;;;;;;;15.71;53.79;100387.38;4309070;33;19992;-90
2022/10/19 02:19:35;;;;;;;;;;;;;;;15.63;54.45;100389.06;4300481;33;19984;-86
2022/10/19 02:22:02;;;;;;;;;;;;;;;15.62;54.20;100382.09;4312639;33;20043;-90
2022/10/19 02:24:29;;;;;;;;;;;;;;;15.71;54.35;100387.38;4309789;33;20344;-87
2022/10/19 02:26:56;;;;;;;;;;;;;;;15.80;53.68;100387.44;4304949;33;19972;-87
2022/10/19 02:29:22;;;;;;;;;;;;;;;15.76;54.15;100384.78;4297033;33;19992;-89
2022/10/19 02:31:50;;;;;;;;;;;;;;;15.81;54.19;100394.38;4306696;33;20011;-90
2022/10/19 02:34:17;;;;;;;;;;;;;;;15.75;54.08;100394.34;4308830;33;19985;-86
2022/10/19 02:36:43;;;;;;;;;;;;;;;15.92;53.78;100401.38;4298007;33;19977;-86
2022/10/19 02:39:10;;;;;;;;;;;;;;;15.92;53.84;100396.16;4311748;33;20746;-85
2022/10/19 02:41:37;;;;;;;;;;;;;;;15.92;53.38;100376.16;4318323;33;20014;-88
2022/10/19 02:44:09;;;;;;;;;;;;;;;15.90;53.11;100377.03;4312600;33;19984;-85
2022/10/19 02:46:45;;;;;;;;;;;;;;;15.94;53.33;100373.53;4283514;33;19988;-91
2022/10/19 02:49:12;;;;;;;;;;;;;;;15.93;53.78;100383.13;4309786;33;19984;-88
2022/10/19 02:51:53;;;;;;;;;;;;;;;15.90;53.59;100377.03;4314372;33;19987;-89
2022/10/19 02:54:20;;;;;;;;;;;;;;;15.87;54.00;100383.09;4312169;33;20277;-91
2022/10/19 02:56:47;;;;;;;;;;;;;;;15.87;54.05;100387.47;4311225;33;20002;-85
2022/10/19 02:59:13;;;;;;;;;;;;;;;15.91;53.92;100389.19;4312608;33;20293;-84
2022/10/19 03:01:40;;;;;;;;;;;;;;;15.89;53.80;100393.53;4316066;33;19992;-91
2022/10/19 03:04:07;;;;;;;;;;;;;;;15.98;53.60;100390.94;4297676;33;20712;-84
2022/10/19 03:06:34;;;;;;;;;;;;;;;15.94;54.20;100394.44;4298391;33;20329;-90
2022/10/19 03:09:01;;;;;;;;;;;;;;;16.08;54.30;100386.63;4292003;33;19984;-85
2022/10/19 03:11:27;;;;;;;;;;;;;;;16.15;54.05;100386.66;4302347;33;20006;-89
2022/10/19 03:13:54;;;;;;;;;;;;;;;15.89;54.68;100391.81;4289863;33;20409;-89
2022/10/19 03:16:21;;;;;;;;;;;;;;;16.21;53.99;100389.28;4296206;33;20266;-85
2022/10/19 03:18:48;;;;;;;;;;;;;;;16.19;54.01;100395.38;4298005;33;20392;-85
2022/10/19 03:21:15;;;;;;;;;;;;;;;16.08;54.48;100405.81;4300453;33;19988;-89
2022/10/19 03:23:42;;;;;;;;;;;;;;;16.07;54.24;100406.66;4146778;33;5003943;-84
2022/10/19 03:26:11;;;;;;;;;;;;;;;16.13;54.00;100404.06;4294698;33;19984;-87
2022/10/19 03:28:38;;;;;;;;;;;;;;;16.39;53.40;100392.78;4298436;33;20003;-88
2022/10/19 03:31:05;;;;;;;;;;;;;;;16.53;52.60;100396.31;4312258;33;19991;-86
2022/10/19 03:33:31;;;;;;;;;;;;;;;16.49;52.69;100399.75;4307826;33;19987;-83
2022/10/19 03:36:27;;;;;;;;;;;;;;;16.22;53.59;100396.25;4303810;33;19965;-89
2022/10/19 03:38:55;;;;;;;;;;;;;;;16.36;53.23;100398.00;4286116;33;20436;-84
2022/10/19 03:41:23;;;;;;;;;;;;;;;16.49;52.44;100398.00;4297878;33;19993;-90
2022/10/19 03:43:49;;;;;;;;;;;;;;;16.49;52.53;100404.97;4308810;33;19988;-90
2022/10/19 03:46:16;;;;;;;;;;;;;;;16.43;52.40;100407.59;4312043;33;19999;-88
2022/10/19 03:48:47;;;;;;;;;;;;;;;16.38;52.58;100404.97;4111476;33;10000108;-86
2022/10/19 03:51:15;;;;;;;;;;;;;;;16.30;52.61;100409.31;4308099;33;20024;-86
2022/10/19 03:53:42;;;;;;;;;;;;;;;16.29;53.00;100407.56;4310418;33;21199;-86
2022/10/19 03:56:16;;;;;;;;;;;;;;;16.26;53.28;100403.22;4311071;33;19995;-87
2022/10/19 03:58:44;;;;;;;;;;;;;;;16.27;53.06;100404.97;4312708;33;20022;-83
2022/10/19 04:01:11;;;;;;;;;;;;;;;16.50;52.18;100404.13;4306164;33;20040;-85
2022/10/19 04:03:39;;;;;;;;;;;;;;;16.50;52.05;100406.75;4296427;33;19993;-85
2022/10/19 04:06:07;;;;;;;;;;;;;;;16.50;52.14;100396.28;4303395;33;19968;-91
2022/10/19 04:08:33;;;;;;;;;;;;;;;16.56;51.91;100400.63;4300287;33;20311;-88
2022/10/19 04:11:01;;;;;;;;;;;;;;;16.60;51.94;100402.41;4302480;33;19976;-88
2022/10/19 04:13:27;;;;;;;;;;;;;;;16.65;51.42;100401.50;4306638;33;20115;-88
2022/10/19 04:15:54;;;;;;;;;;;;;;;16.52;51.81;100407.59;4304330;33;20357;-84
2022/10/19 04:18:21;;;;;;;;;;;;;;;16.52;51.33;100405.00;4322230;33;19983;-88
2022/10/19 04:20:48;;;;;;;;;;;;;;;16.38;51.67;100406.72;4325340;33;20055;-88
2022/10/19 04:23:15;;;;;;;;;;;;;;;16.48;51.46;100411.09;4323849;32;20357;-89
2022/10/19 04:25:42;;;;;;;;;;;;;;;16.27;51.97;100409.31;4316926;33;20373;-84
2022/10/19 04:28:09;;;;;;;;;;;;;;;16.42;51.69;100408.47;4328009;33;19991;-82
2022/10/19 04:30:36;;;;;;;;;;;;;;;15.97;53.01;100404.88;4306779;33;19986;-95
2022/10/19 04:33:03;;;;;;;;;;;;;;;16.03;52.89;100400.56;4302908;33;19996;-86
2022/10/19 04:35:30;;;;;;;;;;;;;;;16.10;52.80;100391.00;4296765;33;20270;-86
2022/10/19 04:37:57;;;;;;;;;;;;;;;16.11;53.23;100392.72;4302880;33;19984;-86
2022/10/19 04:40:24;;;;;;;;;;;;;;;16.37;52.40;100389.28;4297548;33;19997;-87
2022/10/19 04:42:51;;;;;;;;;;;;;;;15.83;54.21;100406.59;4295781;33;20003;-88
2022/10/19 04:45:18;;;;;;;;;;;;;;;15.98;53.58;100411.84;4295844;33;19984;-88
2022/10/19 04:47:45;;;;;;;;;;;;;;;15.29;55.47;100415.00;4295640;33;19985;-86
2022/10/19 04:50:12;;;;;;;;;;;;;;;15.44;55.23;100408.09;4301205;33;20811;-86
2022/10/19 04:52:38;;;;;;;;;;;;;;;15.17;55.99;100404.47;4304593;33;19984;-85
2022/10/19 04:55:06;;;;;;;;;;;;;;;15.06;56.38;100400.91;4298262;33;19980;-87
2022/10/19 04:57:32;;;;;;;;;;;;;;;15.59;54.83;100395.12;4296639;33;19980;-86
2022/10/19 04:59:59;;;;;;;;;;;;;;;15.33;55.80;100390.66;4294329;33;20014;-87
2022/10/19 05:02:26;;;;;;;;;;;;;;;15.66;54.51;100396.91;4299640;33;19984;-86
2022/10/19 05:04:53;;;;;;;;;;;;;;;15.57;54.80;100384.69;4306558;33;20011;-89
2022/10/19 05:07:20;;;;;;;;;;;;;;;15.56;54.89;100389.91;4315304;33;19985;-87
2022/10/19 05:09:47;;;;;;;;;;;;;;;15.73;54.69;100385.66;4304952;33;19999;-90
2022/10/19 05:12:13;;;;;;;;;;;;;;;15.69;55.05;100396.94;4307724;33;19996;-89
2022/10/19 05:14:40;;;;;;;;;;;;;;;15.88;54.91;100405.72;4298956;33;19988;-87
2022/10/19 05:17:08;;;;;;;;;;;;;;;15.79;55.52;100403.97;4307773;33;20094;-84
2022/10/19 05:19:36;;;;;;;;;;;;;;;15.60;56.58;100409.91;4308291;33;19976;-88
2022/10/19 05:22:03;;;;;;;;;;;;;;;15.07;58.46;100407.88;4304786;33;19984;-88
2022/10/19 05:24:31;;;;;;;;;;;;;;;15.42;57.62;100409.84;4302266;33;19979;-90
2022/10/19 05:26:58;;;;;;;;;;;;;;;14.89;59.71;100403.41;4304417;33;19988;-91
2022/10/19 05:29:24;;;;;;;;;;;;;;;15.43;57.85;100402.00;4309210;33;20110;-93
2022/10/19 05:31:51;;;;;;;;;;;;;;;15.52;57.81;100411.62;4317533;33;19995;-92
2022/10/19 05:34:18;;;;;;;;;;;;;;;15.75;57.11;100415.25;4298191;33;20011;-87
2022/10/19 05:36:45;;;;;;;;;;;;;;;15.43;58.43;100416.78;4291857;33;19984;-88
2022/10/19 05:39:13;;;;;;;;;;;;;;;15.56;58.33;100426.44;4292142;33;19992;-88
2022/10/19 05:41:44;;;;;;;;;;;;;;;15.14;60.12;100430.53;4302960;33;20421;-84
2022/10/19 05:44:15;;;;;;;;;;;;;;;15.58;58.69;100424.72;4297993;33;20004;-85
2022/10/19 05:46:42;;;;;;;;;;;;;;;15.78;58.01;100419.59;4309772;33;20320;-87
2022/10/19 05:49:10;;;;;;;;;;;;;;;15.22;60.34;100426.25;4307471;33;19980;-87
2022/10/19 05:51:36;;;;;;;;;;;;;;;15.74;58.23;100429.16;4306991;33;20733;-86
2022/10/19 05:54:04;;;;;;;;;;;;;;;15.90;57.87;100426.63;4309571;33;20012;-87
2022/10/19 05:56:31;;;;;;;;;;;;;;;15.90;57.66;100429.25;4288719;33;19984;-89
2022/10/19 05:58:58;;;;;;;;;;;;;;;15.90;57.94;100439.69;4305541;33;20373;-88
2022/10/19 06:01:26;;;;;;;;;;;;;;;16.11;57.25;100434.50;4296660;33;20034;-90
2022/10/19 06:04:13;;;;;;;;;;;;;;;15.85;58.27;100437.03;4312393;33;20001;-90
2022/10/19 06:07:03;;;;;;;;;;;;;;;16.10;57.40;100438.00;4308857;33;19988;-91
2022/10/19 06:09:34;;;;;;;;;;;;;;;16.11;57.37;100439.72;4307933;33;19988;-90
2022/10/19 06:12:02;;;;;;;;;;;;;;;16.20;57.34;100442.38;4311566;33;20798;-92
2022/10/19 06:14:29;;;;;;;;;;;;;;;16.33;57.26;100439.81;4304120;33;19994;-88
2022/10/19 06:16:56;;;;;;;;;;;;;;;16.32;57.21;100448.50;4319075;33;20390;-87
2022/10/19 06:19:23;;;;;;;;;;;;;;;16.40;56.86;100447.69;4309226;33;20047;-86
2022/10/19 06:21:50;;;;;;;;;;;;;;;16.30;57.50;100450.25;4309856;33;20007;-88
2022/10/19 06:24:16;;;;;;;;;;;;;;;16.30;57.70;100455.47;4309617;33;19988;-87
2022/10/19 06:26:43;;;;;;;;;;;;;;;16.44;57.08;100459.00;4315239;33;20043;-87
2022/10/19 06:29:10;;;;;;;;;;;;;;;16.38;57.41;100457.25;4307259;33;20014;-87
2022/10/19 06:31:37;;;;;;;;;;;;;;;16.52;57.10;100457.25;4295651;33;20027;-87
2022/10/19 06:34:04;;;;;;;;;;;;;;;16.25;58.36;100469.41;4309532;33;20043;-88
2022/10/19 06:36:35;;;;;;;;;;;;;;;16.36;58.04;100468.56;4308366;33;20000;-88
2022/10/19 06:39:02;;;;;;;;;;;;;;;16.39;58.04;100465.94;4296182;33;19992;-87
2022/10/19 06:41:29;;;;;;;;;;;;;;;16.68;57.22;100461.63;4309477;33;20480;-87
2022/10/19 06:43:59;;;;;;;;;;;;;;;16.81;56.74;100469.53;4307658;33;19991;-92
2022/10/19 06:46:26;;;;;;;;;;;;;;;16.45;58.10;100471.19;4308924;33;19989;-87
2022/10/19 06:48:54;;;;;;;;;;;;;;;16.71;57.50;100474.72;4308421;33;20189;-88
2022/10/19 06:51:21;;;;;;;;;;;;;;;16.85;57.27;100472.16;4317741;33;20035;-88
2022/10/19 06:53:48;;;;;;;;;;;;;;;16.98;56.83;100478.28;4308929;33;19984;-86
2022/10/19 06:56:23;;;;;;;;;;;;;;;17.06;56.63;100481.75;4306244;33;20007;-91
2022/10/19 06:58:50;;;;;;;;;;;;;;;17.33;56.22;100490.47;4308579;33;20026;-89
2022/10/19 07:01:17;;;;;;;;;;;;;;;17.61;55.40;100492.16;4308957;33;19992;-91
2022/10/19 07:03:44;;;;;;;;;;;;;;;17.81;54.61;100492.13;4308974;33;19988;-89
2022/10/19 07:06:11;;;;;;;;;;;;;;;17.92;54.65;100505.19;4309258;33;20002;-87
2022/10/19 07:08:38;;;;;;;;;;;;;;;18.16;53.82;100501.63;4302468;33;20059;-87
2022/10/19 07:11:07;;;;;;;;;;;;;;;18.05;54.39;100509.50;4296917;33;20003;-88
2022/10/19 07:13:34;;;;;;;;;;;;;;;18.13;54.26;100502.50;4319666;33;20037;-88
2022/10/19 07:16:06;;;;;;;;;;;;;;;18.29;53.87;100498.06;4308203;33;19984;-88
2022/10/19 07:18:34;;;;;;;;;;;;;;;18.33;53.77;100498.91;4310265;33;20468;-88
2022/10/19 07:21:02;;;;;;;;;;;;;;;18.21;54.23;100499.81;4313472;33;19988;-89
2022/10/19 07:23:29;;;;;;;;;;;;;;;18.56;52.96;100507.50;4314405;33;19984;-88
2022/10/19 07:26:00;;;;;;;;;;;;;;;18.59;53.17;100512.72;4304345;33;19996;-87
2022/10/19 07:28:28;;;;;;;;;;;;;;;18.67;52.75;100510.09;4308684;33;19995;-87
2022/10/19 07:30:54;;;;;;;;;;;;;;;18.72;52.62;100518.81;4298768;33;20416;-88
2022/10/19 07:33:21;;;;;;;;;;;;;;;18.78;52.49;100517.91;4295910;33;19976;-87
2022/10/19 07:35:48;;;;;;;;;;;;;;;18.66;52.66;100510.06;4300904;33;19992;-88
2022/10/19 07:38:15;;;;;;;;;;;;;;;18.70;53.08;100514.44;4317189;33;20415;-87
2022/10/19 07:40:42;;;;;;;;;;;;;;;19.09;51.75;100522.94;4315441;33;19976;-87
2022/10/19 07:43:13;;;;;;;;;;;;;;;19.28;51.64;100519.28;4321532;33;19996;-87
2022/10/19 07:45:39;;;;;;;;;;;;;;;19.38;51.21;100527.94;4314452;33;20043;-87
2022/10/19 07:48:06;;;;;;;;;;;;;;;19.58;50.94;100527.75;4307023;33;19985;-88
2022/10/19 07:50:33;;;;;;;;;;;;;;;19.70;50.48;100522.41;4296341;33;20024;-87
2022/10/19 07:53:02;;;;;;;;;;;;;;;19.81;50.02;100531.03;4297612;33;20042;-88
2022/10/19 07:55:29;;;;;;;;;;;;;;;19.98;49.33;100528.25;4311533;33;20309;-88
2022/10/19 07:58:00;;;;;;;;;;;;;;;20.15;49.10;100521.00;4318043;33;19987;-87
2022/10/19 08:00:27;;;;;;;;;;;;;;;20.40;49.63;100521.56;4312991;33;20031;-88
2022/10/19 08:02:54;;;;;;;;;;;;;;;20.67;48.03;100514.22;4308639;33;19972;-88
2022/10/19 08:05:41;;;;;;;;;;;;;;;20.80;47.89;100521.03;4308447;33;20063;-88
2022/10/19 08:08:08;;;;;;;;;;;;;;;21.05;48.32;100512.75;4297038;33;20463;-89
2022/10/19 08:13:22;;;;;;;;;;;;;;;21.62;47.91;100506.53;4318039;33;20399;-89
2022/10/19 08:15:49;;;;;;;;;;;;;;;21.35;47.45;100509.66;4310751;33;19975;-89
2022/10/19 08:18:17;;;;;;;;;;;;;;;21.62;46.46;100502.13;4321500;33;19996;-91
2022/10/19 08:20:45;;;;;;;;;;;;;;;21.89;46.08;100510.41;4314207;33;19984;-90
2022/10/19 08:23:11;;;;;;;;;;;;;;;21.71;46.58;100507.25;4293344;33;20386;-89
2022/10/19 08:28:50;;;;;;;;;;;;;;;22.20;44.82;100511.56;4346263;27;20007;-86
2022/10/19 08:31:18;;;;;;;;;;;;;;;22.47;45.69;100511.87;4321167;33;20007;-89
2022/10/19 08:33:45;;;;;;;;;;;;;;;22.73;43.87;100517.44;4344883;32;20034;-90
2022/10/19 08:36:13;;;;;;;;;;;;;;;22.70;43.24;100516.62;4337844;32;19984;-90
2022/10/19 08:38:40;;;;;;;;;;;;;;;22.80;43.20;100509.38;4350912;32;19995;-88
2022/10/19 08:41:22;;;;;;;;;;;;;;;22.62;44.61;100508.91;3589883;32;10004709;-89
2022/10/19 08:44:01;;;;;;;;;;;;;;;22.77;43.27;100512.94;4326460;32;20344;-90
2022/10/19 08:46:51;;;;;;;;;;;;;;;22.39;44.44;100516.44;4339796;33;20009;-85
2022/10/19 08:49:19;;;;;;;;;;;;;;;22.61;43.54;100511.56;4340979;33;19998;-88
2022/10/19 08:51:49;;;;;;;;;;;;;;;22.71;45.09;100506.03;4333003;32;20051;-86
2022/10/19 08:54:16;;;;;;;;;;;;;;;22.77;43.77;100506.78;4039204;33;10000460;-87
2022/10/19 08:56:48;;;;;;;;;;;;;;;22.96;42.71;100502.84;4339076;33;20253;-88
2022/10/19 08:59:20;;;;;;;;;;;;;;;22.70;44.94;100506.06;4334354;33;19999;-87
2022/10/19 09:01:53;;;;;;;;;;;;;;;23.13;42.22;100503.31;4340475;33;19994;-87
2022/10/19 09:04:25;;;;;;;;;;;;;;;23.36;41.66;100515.06;4345843;32;20422;-87
2022/10/19 09:07:01;;;;;;;;;;;;;;;23.11;43.43;100512.19;4335297;33;20431;-87
2022/10/19 09:09:29;;;;;;;;;;;;;;;23.80;40.09;100502.44;4338603;33;19984;-85
2022/10/19 09:11:57;;;;;;;;;;;;;;;23.25;41.50;100503.91;4339328;33;20002;-86
2022/10/19 09:14:25;;;;;;;;;;;;;;;23.06;43.03;100500.84;4311534;32;19991;-86
2022/10/19 09:16:51;;;;;;;;;;;;;;;23.40;42.34;100509.66;4315043;33;20005;-85
2022/10/19 09:19:24;;;;;;;;;;;;;;;23.90;40.24;100504.81;4338789;33;19987;-86
2022/10/19 09:21:56;;;;;;;;;;;;;;;23.64;40.40;100507.25;4339678;32;20005;-84
2022/10/19 09:24:26;;;;;;;;;;;;;;;23.42;40.51;100501.66;4338323;33;19988;-85
2022/10/19 09:26:55;;;;;;;;;;;;;;;23.63;40.04;100503.75;4337663;33;19995;-85
2022/10/19 09:29:24;;;;;;;;;;;;;;;23.52;40.64;100503.19;4338339;33;19980;-85
2022/10/19 09:31:55;;;;;;;;;;;;;;;23.59;40.58;100504.75;4339848;33;19976;-86
2022/10/19 09:34:29;;;;;;;;;;;;;;;23.89;39.61;100502.19;4338139;33;19979;-86
2022/10/19 09:36:56;;;;;;;;;;;;;;;23.80;40.15;100507.72;4338633;33;19998;-85
2022/10/19 09:39:24;;;;;;;;;;;;;;;23.72;41.03;100515.03;4338817;33;19979;-86
2022/10/19 09:41:56;;;;;;;;;;;;;;;23.56;41.17;100515.41;4337899;33;19971;-86
2022/10/19 09:44:24;;;;;;;;;;;;;;;23.27;42.32;100523.22;4325899;33;20682;-87
2022/10/19 09:46:53;;;;;;;;;;;;;;;23.84;40.11;100514.69;4338413;33;20003;-86
2022/10/19 09:49:39;;;;;;;;;;;;;;;23.60;40.02;100522.34;4326805;33;19991;-86
2022/10/19 09:52:20;;;;;;;;;;;;;;;23.25;41.53;100522.38;4339723;32;19976;-86
2022/10/19 09:54:49;;;;;;;;;;;;;;;23.26;39.87;100521.47;4338893;33;19992;-86
2022/10/19 09:57:19;;;;;;;;;;;;;;;23.19;39.30;100521.63;4338114;33;20034;-87
2022/10/19 09:59:46;;;;;;;;;;;;;;;23.08;39.42;100518.41;4326436;33;19988;-86
2022/10/19 10:02:15;;;;;;;;;;;;;;;23.23;39.72;100510.97;4325677;33;20043;-84
2022/10/19 10:04:46;;;;;;;;;;;;;;;23.05;36.91;100507.91;4337709;33;19992;-84
2022/10/19 10:07:14;;;;;;;;;;;;;;;23.13;35.14;100511.25;4326593;33;19971;-85
2022/10/19 10:09:41;;;;;;;;;;;;;;;22.95;36.11;100503.75;4326424;33;20042;-84
2022/10/19 10:12:08;;;;;;;;;;;;;;;23.13;36.10;100505.97;4338326;33;20007;-85
2022/10/19 10:14:35;;;;;;;;;;;;;;;22.88;35.56;100504.78;4337830;33;20322;-86
2022/10/19 10:17:03;;;;;;;;;;;;;;;22.75;37.42;100504.22;4337966;33;19979;-85
2022/10/19 10:19:31;;;;;;;;;;;;;;;23.07;36.27;100500.81;4337393;33;19987;-85
2022/10/19 10:21:58;;;;;;;;;;;;;;;22.99;37.36;100502.78;4337702;32;20312;-86
2022/10/19 10:24:29;;;;;;;;;;;;;;;23.36;34.63;100502.72;4337225;33;20325;-85
2022/10/19 10:27:00;;;;;;;;;;;;;;;22.98;35.67;100501.03;4325261;33;20014;-85
2022/10/19 10:29:26;;;;;;;;;;;;;;;22.88;36.04;100494.22;4334222;33;20051;-88
2022/10/19 10:31:59;;;;;;;;;;;;;;;23.21;36.27;100487.25;4336968;33;19990;-85
2022/10/19 10:34:38;;;;;;;;;;;;;;;23.50;36.57;100483.84;4339343;32;20260;-86
2022/10/19 10:37:28;;;;;;;;;;;;;;;23.58;33.82;100476.59;4340088;33;20387;-88
2022/10/19 10:39:56;;;;;;;;;;;;;;;23.62;35.03;100486.16;4336678;33;19979;-86
2022/10/19 10:42:31;;;;;;;;;;;;;;;23.50;36.21;100478.56;4336487;33;20384;-86
2022/10/19 10:44:59;;;;;;;;;;;;;;;23.29;37.93;100479.12;4332324;33;19999;-87
2022/10/19 10:47:26;;;;;;;;;;;;;;;23.26;36.89;100473.91;4337565;33;19988;-90
2022/10/19 10:49:57;;;;;;;;;;;;;;;23.30;36.34;100470.31;4330877;32;19999;-87
2022/10/19 10:52:24;;;;;;;;;;;;;;;23.49;33.92;100470.69;4332565;33;19983;-86
2022/10/19 10:55:14;;;;;;;;;;;;;;;23.46;34.72;100471.63;4336345;32;20006;-87
2022/10/19 10:57:46;;;;;;;;;;;;;;;23.32;34.99;100460.56;4332785;32;20084;-87
2022/10/19 11:00:13;;;;;;;;;;;;;;;23.35;34.73;100452.53;4338111;32;20006;-87
2022/10/19 11:02:53;;;;;;;;;;;;;;;23.43;33.98;100450.59;4339639;33;20063;-91
2022/10/19 11:05:27;;;;;;;;;;;;;;;23.46;31.15;100454.91;4339807;33;20314;-85
2022/10/19 11:08:00;;;;;;;;;;;;;;;23.44;32.16;100452.31;4340901;32;19991;-88
2022/10/19 11:10:29;;;;;;;;;;;;;;;23.31;32.79;100445.62;4326855;33;19988;-87
2022/10/19 11:13:04;;;;;;;;;;;;;;;23.42;33.96;100443.53;4338292;32;20688;-89
2022/10/19 11:15:33;;;;;;;;;;;;;;;23.40;34.15;100434.81;4340032;33;20004;-85
2022/10/19 11:18:18;;;;;;;;;;;;;;;23.63;32.40;100442.97;4337994;32;19988;-89
2022/10/19 11:20:52;;;;;;;;;;;;;;;23.51;33.22;100432.72;4309421;33;20010;-90
2022/10/19 11:23:25;;;;;;;;;;;;;;;23.28;32.99;100433.34;4338924;33;19979;-88
2022/10/19 11:26:04;;;;;;;;;;;;;;;23.23;32.95;100432.63;4340769;32;20011;-86
2022/10/19 11:28:31;;;;;;;;;;;;;;;23.04;34.45;100448.09;4339333;33;19991;-90
2022/10/19 11:31:05;;;;;;;;;;;;;;;22.57;35.53;100443.94;4337372;33;20019;-90
2022/10/19 11:33:32;;;;;;;;;;;;;;;22.93;35.19;100434.25;4325125;33;20725;-87
2022/10/19 11:36:28;;;;;;;;;;;;;;;22.86;34.75;100436.16;4303890;33;19987;-87
2022/10/19 11:39:16;;;;;;;;;;;;;;;22.75;36.03;100431.16;4313253;33;20007;-90
2022/10/19 11:41:45;;;;;;;;;;;;;;;22.83;36.58;100422.19;4320114;33;19980;-87
2022/10/19 11:44:15;;;;;;;;;;;;;;;22.99;36.76;100420.91;4315217;33;19976;-82
2022/10/19 11:47:02;;;;;;;;;;;;;;;22.95;35.40;100416.63;4325747;33;20036;-85
2022/10/19 11:49:48;;;;;;;;;;;;;;;22.69;36.26;100410.19;4317775;32;19998;-83
2022/10/19 11:52:18;;;;;;;;;;;;;;;22.34;37.72;100423.37;4352419;32;19980;-79
2022/10/19 11:54:49;;;;;;;;;;;;;;;22.38;36.52;100417.13;4344491;32;19979;-80
2022/10/19 11:57:16;;;;;;;;;;;;;;;22.52;36.16;100415.00;4340300;32;19987;-83
2022/10/19 11:59:43;;;;;;;;;;;;;;;22.69;36.10;100415.47;4332076;32;19979;-84
2022/10/19 12:02:13;;;;;;;;;;;;;;;22.88;35.19;100409.75;4338687;32;20006;-89
2022/10/19 12:04:53;;;;;;;;;;;;;;;22.48;35.54;100405.44;4322801;32;20001;-88
2022/10/19 12:07:26;;;;;;;;;;;;;;;22.29;37.34;100399.72;4353491;32;19999;-85
2022/10/19 12:09:57;;;;;;;;;;;;;;;22.63;36.02;100399.78;4348281;32;19979;-81
2022/10/19 12:12:24;;;;;;;;;;;;;;;22.89;35.17;100400.91;4340883;32;20087;-83
2022/10/19 12:14:52;;;;;;;;;;;;;;;22.75;35.77;100410.06;4354172;32;20022;-81
2022/10/19 12:17:22;;;;;;;;;;;;;;;22.51;36.31;100411.50;4283171;32;20052;-84
2022/10/19 12:19:49;;;;;;;;;;;;;;;22.55;36.02;100407.00;4324078;33;20002;-84
2022/10/19 12:22:18;;;;;;;;;;;;;;;22.31;36.49;100413.75;4336175;33;19975;-83
2022/10/19 12:24:45;;;;;;;;;;;;;;;22.27;35.35;100423.50;4340009;33;19983;-86
2022/10/19 12:27:13;;;;;;;;;;;;;;;22.08;35.70;100410.72;4340186;33;20325;-84
2022/10/19 12:29:40;;;;;;;;;;;;;;;21.94;37.05;100406.59;4339770;32;19999;-82
2022/10/19 12:32:07;;;;;;;;;;;;;;;22.13;36.84;100399.16;4338947;33;20001;-86
2022/10/19 12:34:37;;;;;;;;;;;;;;;22.19;37.15;100393.78;4338655;33;19971;-81
2022/10/19 12:37:18;;;;;;;;;;;;;;;21.93;37.34;100402.25;4341207;33;20007;-87
2022/10/19 12:39:51;;;;;;;;;;;;;;;21.85;38.31;100400.66;4339865;33;20422;-85
2022/10/19 12:42:20;;;;;;;;;;;;;;;21.55;37.97;100389.87;4338569;32;20050;-88
2022/10/19 12:44:48;;;;;;;;;;;;;;;21.57;38.44;100393.34;4340853;33;19979;-87
2022/10/19 12:47:18;;;;;;;;;;;;;;;21.39;39.60;100393.72;4338806;32;20006;-87
2022/10/19 12:49:45;;;;;;;;;;;;;;;21.67;37.03;100384.34;4339165;33;19987;-87
2022/10/19 12:52:13;;;;;;;;;;;;;;;21.67;35.47;100384.34;4336061;33;19991;-86
2022/10/19 12:54:40;;;;;;;;;;;;;;;21.52;35.53;100372.34;4322763;33;20479;-91